Time;durP1;ratioP1;P1;durP2;ratioP2;P2;SDS_P1;SDS_P2;PMS_P1;PMS_P2;Temp;Humidity;BMP_temperature;BMP_pressure;BME280_temperature;BME280_humidity;BME280_pressure;Samples;Min_cycle;Max_cycle;Signal;HPM_P1;HPM_P2
2021/08/05 00:01:51;;;;;;;6.73;5.30;;;17.20;84.30;;;;;;4927874;29;20492;-49
2021/08/05 00:04:18;;;;;;;5.97;5.20;;;17.20;84.30;;;;;;4928446;29;20824;-49
2021/08/05 00:06:45;;;;;;;6.33;5.60;;;17.20;84.30;;;;;;4932530;29;20657;-49
2021/08/05 00:09:11;;;;;;;7.97;5.90;;;17.20;84.40;;;;;;4930312;29;20475;-49
2021/08/05 00:11:38;;;;;;;5.70;4.83;;;17.20;84.40;;;;;;4925838;29;20547;-49
2021/08/05 00:14:05;;;;;;;6.63;5.80;;;17.20;84.50;;;;;;4927702;29;20463;-49
2021/08/05 00:16:32;;;;;;;7.60;5.40;;;17.20;84.50;;;;;;4926008;29;20547;-49
2021/08/05 00:18:59;;;;;;;7.87;5.97;;;17.20;84.60;;;;;;4925373;29;20498;-49
2021/08/05 00:21:26;;;;;;;5.43;4.80;;;17.20;84.60;;;;;;4926437;29;20469;-49
2021/08/05 00:23:53;;;;;;;6.40;4.07;;;17.20;84.60;;;;;;4929371;29;20456;-49
2021/08/05 00:26:22;;;;;;;8.00;5.23;;;17.20;84.60;;;;;;4930388;29;20963;-49
2021/08/05 00:28:49;;;;;;;7.40;5.30;;;17.20;84.60;;;;;;4926265;29;20534;-49
2021/08/05 00:31:17;;;;;;;6.27;4.93;;;17.20;84.70;;;;;;4929823;29;20495;-50
2021/08/05 00:33:44;;;;;;;5.53;4.77;;;17.20;84.70;;;;;;4930948;29;20456;-50
2021/08/05 00:36:11;;;;;;;5.57;5.00;;;17.20;84.70;;;;;;4930133;29;20463;-50
2021/08/05 00:38:38;;;;;;;6.63;5.53;;;17.20;84.80;;;;;;4928208;29;20546;-50
2021/08/05 00:41:05;;;;;;;6.27;5.30;;;17.20;84.90;;;;;;4927438;29;20465;-50
2021/08/05 00:43:34;;;;;;;8.53;6.27;;;17.20;84.90;;;;;;4927563;29;20500;-50
2021/08/05 00:46:02;;;;;;;7.07;5.60;;;17.20;84.90;;;;;;4931320;29;20451;-50
2021/08/05 00:48:29;;;;;;;5.40;4.53;;;17.20;84.90;;;;;;4927812;29;20464;-50
2021/08/05 00:50:57;;;;;;;7.00;6.20;;;17.20;84.90;;;;;;4927424;29;20674;-50
2021/08/05 00:53:26;;;;;;;7.43;5.30;;;17.20;84.90;;;;;;4927424;29;21048;-50
2021/08/05 00:55:54;;;;;;;6.50;5.90;;;17.20;84.90;;;;;;4932232;29;20474;-50
2021/08/05 00:58:21;;;;;;;7.23;5.50;;;17.20;84.90;;;;;;4930138;29;20460;-50
2021/08/05 01:00:55;;;;;;;7.60;5.67;;;17.20;84.90;;;;;;4932121;29;20583;-50
2021/08/05 01:03:28;;;;;;;7.20;5.97;;;17.20;85.00;;;;;;4929431;29;20498;-50
2021/08/05 01:06:26;;;;;;;7.40;6.37;;;17.20;85.00;;;;;;4930688;29;20456;-50
2021/08/05 01:09:09;;;;;;;7.10;4.90;;;17.20;85.00;;;;;;4931910;29;20542;-49
2021/08/05 01:11:42;;;;;;;6.60;5.27;;;17.20;85.00;;;;;;4928277;29;20468;-50
2021/08/05 01:14:15;;;;;;;6.77;5.03;;;17.10;85.00;;;;;;4923328;29;21292;-50
2021/08/05 01:16:46;;;;;;;5.57;4.97;;;17.10;85.10;;;;;;4933440;29;20472;-50
2021/08/05 01:19:30;;;;;;;6.30;5.20;;;17.10;85.10;;;;;;4925705;29;20469;-50
2021/08/05 01:22:06;;;;;;;6.83;5.13;;;17.10;85.20;;;;;;4928438;29;20503;-50
2021/08/05 01:24:37;;;;;;;6.17;5.50;;;17.10;85.20;;;;;;4928176;29;20546;-49
2021/08/05 01:27:04;;;;;;;5.97;4.80;;;17.10;85.20;;;;;;4928399;29;21041;-49
2021/08/05 01:29:35;;;;;;;7.03;4.60;;;17.10;85.20;;;;;;4924832;29;20460;-49
2021/08/05 01:32:04;;;;;;;5.60;4.80;;;17.10;85.20;;;;;;4928353;29;20972;-50
2021/08/05 01:34:32;;;;;;;6.67;5.97;;;17.10;85.20;;;;;;4923981;29;20464;-50
2021/08/05 01:37:00;;;;;;;7.13;6.07;;;17.00;85.10;;;;;;4924052;29;21042;-49
2021/08/05 01:39:28;;;;;;;9.20;5.57;;;17.00;85.10;;;;;;4927999;29;20460;-49
2021/08/05 01:41:56;;;;;;;6.57;5.87;;;17.00;85.20;;;;;;4930917;29;20494;-50
2021/08/05 01:44:23;;;;;;;7.07;6.03;;;17.00;85.20;;;;;;4925690;29;20464;-49
2021/08/05 01:46:50;;;;;;;6.00;5.00;;;17.00;85.20;;;;;;4923302;29;20456;-50
2021/08/05 01:49:18;;;;;;;5.90;5.30;;;16.90;85.20;;;;;;4925040;29;20457;-49
2021/08/05 01:51:47;;;;;;;6.27;5.27;;;16.90;85.10;;;;;;4897188;29;20877;-49
2021/08/05 01:54:14;;;;;;;7.20;6.03;;;16.90;85.10;;;;;;4923840;29;20471;-49
2021/08/05 01:56:41;;;;;;;7.00;6.27;;;16.90;85.20;;;;;;4929674;29;20786;-49
2021/08/05 01:59:08;;;;;;;9.67;6.37;;;16.80;85.10;;;;;;4911244;29;20965;-49
2021/08/05 02:01:36;;;;;;;7.80;5.97;;;16.80;85.20;;;;;;4927901;29;20487;-49
2021/08/05 02:04:26;;;;;;;6.83;5.93;;;16.80;85.30;;;;;;4924028;29;20464;-49
2021/08/05 02:07:06;;;;;;;6.93;6.00;;;16.80;85.40;;;;;;4927962;29;20463;-49
2021/08/05 02:09:55;;;;;;;8.10;6.50;;;16.70;85.50;;;;;;4929212;29;20466;-49
2021/08/05 02:12:22;;;;;;;8.60;6.60;;;16.70;85.50;;;;;;4926973;29;20474;-50
2021/08/05 02:14:53;;;;;;;9.40;6.27;;;16.70;85.60;;;;;;4930736;29;20491;-50
2021/08/05 02:17:20;;;;;;;6.40;5.13;;;16.70;85.70;;;;;;4931890;29;20464;-50
2021/08/05 02:19:49;;;;;;;6.90;5.67;;;16.60;85.80;;;;;;4931098;29;20467;-50
2021/08/05 02:22:20;;;;;;;7.43;6.47;;;16.60;85.80;;;;;;4917941;29;20495;-50
2021/08/05 02:24:47;;;;;;;9.87;6.40;;;16.60;85.90;;;;;;4931639;29;20462;-49
2021/08/05 02:27:14;;;;;;;6.67;6.07;;;16.60;85.80;;;;;;4927050;29;20981;-49
2021/08/05 02:29:41;;;;;;;7.47;5.90;;;16.60;85.80;;;;;;4934064;29;20976;-49
2021/08/05 02:32:08;;;;;;;8.80;6.73;;;16.50;85.80;;;;;;4929965;29;20463;-49
2021/08/05 02:34:36;;;;;;;7.00;6.17;;;16.50;85.90;;;;;;4929076;29;21003;-50
2021/08/05 02:37:04;;;;;;;7.60;5.93;;;16.50;86.00;;;;;;4931732;29;20904;-49
2021/08/05 02:39:32;;;;;;;7.17;6.43;;;16.50;86.10;;;;;;4928350;29;20473;-49
2021/08/05 02:42:00;;;;;;;6.70;6.00;;;16.50;86.10;;;;;;4912629;29;20499;-49
2021/08/05 02:44:28;;;;;;;8.07;6.43;;;16.40;86.10;;;;;;4901512;29;20510;-50
2021/08/05 02:46:55;;;;;;;7.37;6.60;;;16.40;86.10;;;;;;4911963;29;20468;-49
2021/08/05 02:49:22;;;;;;;6.47;5.87;;;16.40;86.10;;;;;;4927967;29;20464;-49
2021/08/05 02:51:49;;;;;;;9.57;5.67;;;16.40;86.10;;;;;;4929906;29;20462;-50
2021/08/05 02:54:21;;;;;;;8.03;6.60;;;16.40;86.20;;;;;;4931695;29;20825;-50
2021/08/05 02:56:48;;;;;;;8.77;5.37;;;16.40;86.20;;;;;;4934301;29;20470;-50
2021/08/05 02:59:15;;;;;;;7.50;6.80;;;16.40;86.30;;;;;;4916885;29;20944;-50
2021/08/05 03:01:42;;;;;;;8.47;6.37;;;16.40;86.40;;;;;;4914070;29;20488;-51
2021/08/05 03:04:10;;;;;;;7.10;6.10;;;16.40;86.40;;;;;;4930342;29;20571;-51
2021/08/05 03:06:39;;;;;;;6.90;6.00;;;16.30;86.40;;;;;;4930486;29;20555;-51
2021/08/05 03:09:06;;;;;;;5.87;5.27;;;16.30;86.40;;;;;;4930803;29;20987;-51
2021/08/05 03:11:32;;;;;;;7.00;6.30;;;16.30;86.30;;;;;;4932821;29;20583;-51
2021/08/05 03:13:59;;;;;;;6.80;6.10;;;16.30;86.30;;;;;;4932476;29;20463;-51
2021/08/05 03:16:26;;;;;;;6.87;5.90;;;16.20;86.30;;;;;;4931922;29;20469;-50
2021/08/05 03:18:53;;;;;;;9.03;5.80;;;16.20;86.30;;;;;;4930281;29;20560;-51
2021/08/05 03:21:20;;;;;;;6.70;5.53;;;16.20;86.30;;;;;;4928325;29;20471;-51
2021/08/05 03:23:46;;;;;;;7.53;6.60;;;16.20;86.20;;;;;;4928820;29;20503;-51
2021/08/05 03:26:13;;;;;;;6.30;5.70;;;16.20;86.20;;;;;;4930736;29;20452;-50
2021/08/05 03:28:40;;;;;;;7.37;6.50;;;16.20;86.10;;;;;;4931315;29;20555;-51
2021/08/05 03:31:07;;;;;;;8.10;6.13;;;16.20;86.00;;;;;;4930604;29;20464;-51
2021/08/05 03:33:33;;;;;;;5.63;4.80;;;16.10;86.00;;;;;;4928577;29;20476;-51
2021/08/05 03:36:00;;;;;;;7.50;5.90;;;16.10;86.00;;;;;;4928877;29;20478;-51
2021/08/05 03:38:27;;;;;;;6.57;5.73;;;16.00;86.00;;;;;;4930137;29;20472;-51
2021/08/05 03:40:55;;;;;;;7.20;5.87;;;16.00;86.00;;;;;;4931398;29;20543;-51
2021/08/05 03:43:21;;;;;;;8.83;6.13;;;16.00;86.00;;;;;;4925843;29;20996;-50
2021/08/05 03:45:48;;;;;;;6.73;6.00;;;16.00;86.10;;;;;;4900866;29;20559;-51
2021/08/05 03:48:16;;;;;;;7.10;5.60;;;16.00;86.20;;;;;;4930043;29;20953;-51
2021/08/05 03:50:42;;;;;;;6.13;5.17;;;16.00;86.10;;;;;;4913604;29;20466;-51
2021/08/05 03:53:09;;;;;;;8.03;5.67;;;15.90;86.10;;;;;;4914068;29;20499;-51
2021/08/05 03:55:36;;;;;;;7.27;5.23;;;15.90;86.20;;;;;;4927878;29;20460;-51
2021/08/05 03:58:06;;;;;;;8.93;6.10;;;15.90;86.10;;;;;;4930545;29;20463;-51
2021/08/05 04:00:33;;;;;;;5.37;4.70;;;15.90;86.20;;;;;;4927020;29;20550;-51
2021/08/05 04:03:00;;;;;;;7.53;5.60;;;15.90;86.20;;;;;;4929807;29;20977;-51
2021/08/05 04:05:27;;;;;;;6.70;6.03;;;15.90;86.30;;;;;;4914179;29;20982;-51
2021/08/05 04:07:54;;;;;;;6.77;5.43;;;15.90;86.40;;;;;;4929598;29;21158;-51
2021/08/05 04:10:20;;;;;;;7.10;6.17;;;15.90;86.50;;;;;;4929065;29;20455;-51
2021/08/05 04:12:47;;;;;;;6.47;5.87;;;15.90;86.50;;;;;;4913188;29;20468;-51
2021/08/05 04:15:15;;;;;;;6.60;5.73;;;15.90;86.60;;;;;;4927814;29;20487;-51
2021/08/05 04:17:41;;;;;;;8.70;6.43;;;15.90;86.60;;;;;;4932772;29;20470;-51
2021/08/05 04:20:10;;;;;;;8.50;7.13;;;15.90;86.60;;;;;;4912607;29;20660;-51
2021/08/05 04:22:37;;;;;;;7.63;6.30;;;15.90;86.70;;;;;;4912010;29;20997;-51
2021/08/05 04:25:05;;;;;;;7.70;6.47;;;15.90;86.80;;;;;;4926014;29;20950;-51
2021/08/05 04:27:32;;;;;;;9.30;7.10;;;15.90;86.80;;;;;;4928776;29;20486;-51
2021/08/05 04:29:59;;;;;;;9.63;8.27;;;16.00;86.90;;;;;;4930271;29;20460;-51
2021/08/05 04:32:25;;;;;;;8.83;6.60;;;16.00;87.10;;;;;;4916015;29;20468;-51
2021/08/05 04:34:52;;;;;;;9.57;8.37;;;16.10;87.00;;;;;;4913229;29;20839;-50
2021/08/05 04:37:20;;;;;;;9.43;8.43;;;16.10;87.00;;;;;;4930197;29;20503;-51
2021/08/05 04:39:46;;;;;;;10.73;8.23;;;16.10;87.00;;;;;;4927350;29;20468;-50
2021/08/05 04:42:13;;;;;;;8.33;6.73;;;16.10;86.90;;;;;;4927785;29;20539;-51
2021/08/05 04:44:40;;;;;;;11.13;7.70;;;16.10;86.90;;;;;;4911373;29;20555;-51
2021/08/05 04:47:07;;;;;;;10.63;8.20;;;16.20;86.90;;;;;;4928332;29;20555;-51
2021/08/05 04:49:34;;;;;;;11.03;8.03;;;16.20;87.00;;;;;;4927769;29;20468;-51
2021/08/05 04:52:01;;;;;;;10.30;7.57;;;16.20;87.00;;;;;;4927194;29;20839;-51
2021/08/05 04:54:28;;;;;;;8.83;7.23;;;16.20;87.00;;;;;;4910356;29;20477;-50
2021/08/05 04:56:55;;;;;;;12.13;8.57;;;16.20;87.00;;;;;;4925032;29;20539;-51
2021/08/05 04:59:22;;;;;;;9.67;7.30;;;16.30;87.10;;;;;;4926039;29;20558;-51
2021/08/05 05:01:48;;;;;;;10.83;7.90;;;16.30;87.10;;;;;;4928142;29;20471;-51
2021/08/05 05:04:15;;;;;;;10.13;7.43;;;16.40;87.10;;;;;;4928445;29;20494;-51
2021/08/05 05:06:42;;;;;;;9.43;7.47;;;16.40;87.20;;;;;;4931335;29;20508;-51
2021/08/05 05:09:09;;;;;;;11.07;7.37;;;16.40;87.20;;;;;;4929656;29;20511;-51
2021/08/05 05:11:36;;;;;;;9.67;8.27;;;16.50;87.20;;;;;;4928143;29;20467;-51
2021/08/05 05:14:03;;;;;;;9.80;8.13;;;16.50;87.20;;;;;;4928892;29;20467;-51
2021/08/05 05:16:30;;;;;;;9.83;8.00;;;16.50;87.40;;;;;;4931992;29;20958;-51
2021/08/05 05:18:57;;;;;;;8.40;6.80;;;16.60;87.40;;;;;;4923414;29;20825;-51
2021/08/05 05:21:24;;;;;;;9.57;7.60;;;16.60;87.20;;;;;;4929067;29;21076;-51
2021/08/05 05:23:51;;;;;;;10.13;7.67;;;16.70;87.10;;;;;;4927224;29;20484;-51
2021/08/05 05:26:18;;;;;;;9.57;7.37;;;16.70;87.10;;;;;;4927598;29;20923;-51
2021/08/05 05:28:44;;;;;;;8.70;7.60;;;16.70;87.10;;;;;;4926226;29;20470;-51
2021/08/05 05:31:11;;;;;;;10.80;7.83;;;16.80;87.10;;;;;;4927663;29;20436;-51
2021/08/05 05:33:38;;;;;;;9.73;8.33;;;16.80;87.10;;;;;;4927435;29;20906;-50
2021/08/05 05:36:05;;;;;;;12.10;9.47;;;16.90;87.10;;;;;;4929909;29;20900;-51
2021/08/05 05:38:32;;;;;;;9.60;7.83;;;16.90;87.10;;;;;;4927228;29;20460;-51
2021/08/05 05:40:59;;;;;;;8.93;7.70;;;17.00;86.80;;;;;;4912522;29;20474;-51
2021/08/05 05:43:26;;;;;;;8.73;6.50;;;17.10;86.40;;;;;;4928970;29;20750;-51
2021/08/05 05:45:52;;;;;;;14.40;7.80;;;17.10;86.20;;;;;;4928716;29;20491;-51
2021/08/05 05:48:19;;;;;;;8.67;6.90;;;17.10;86.30;;;;;;4927019;29;20463;-51
2021/08/05 05:50:46;;;;;;;15.13;7.27;;;17.10;86.40;;;;;;4935125;29;20459;-51
2021/08/05 05:53:15;;;;;;;8.90;7.70;;;17.20;86.40;;;;;;4934982;29;20566;-51
2021/08/05 05:55:42;;;;;;;8.90;6.73;;;17.20;86.20;;;;;;4931572;29;20543;-51
2021/08/05 05:58:09;;;;;;;8.40;6.80;;;17.20;86.00;;;;;;4936396;29;20459;-51
2021/08/05 06:00:36;;;;;;;9.50;6.33;;;17.20;85.90;;;;;;4934917;29;20811;-51
2021/08/05 06:03:05;;;;;;;8.77;7.50;;;17.20;85.90;;;;;;4936366;29;20538;-51
2021/08/05 06:05:33;;;;;;;7.33;6.63;;;17.30;85.80;;;;;;4934264;29;20815;-51
2021/08/05 06:08:00;;;;;;;10.30;7.80;;;17.30;85.80;;;;;;4934743;29;21006;-51
2021/08/05 06:10:27;;;;;;;9.37;7.30;;;17.30;85.90;;;;;;4933977;29;20952;-50
2021/08/05 06:12:54;;;;;;;8.60;7.50;;;17.30;86.10;;;;;;4938100;29;20479;-50
2021/08/05 06:15:21;;;;;;;10.10;7.47;;;17.40;86.10;;;;;;4936624;29;20490;-51
2021/08/05 06:17:48;;;;;;;9.40;7.37;;;17.50;86.10;;;;;;4932283;29;20547;-51
2021/08/05 06:20:18;;;;;;;10.30;8.37;;;17.50;85.90;;;;;;4932018;29;21261;-51
2021/08/05 06:22:47;;;;;;;13.57;7.77;;;17.60;85.60;;;;;;4915288;29;20935;-51
2021/08/05 06:25:15;;;;;;;8.87;7.03;;;17.60;85.60;;;;;;4932230;29;20474;-51
2021/08/05 06:27:42;;;;;;;9.80;7.80;;;17.70;85.60;;;;;;4931604;29;20547;-51
2021/08/05 06:30:11;;;;;;;7.83;7.03;;;17.70;85.40;;;;;;4936451;29;20463;-51
2021/08/05 06:32:38;;;;;;;6.90;5.93;;;17.80;85.20;;;;;;4935194;29;20518;-51
2021/08/05 06:35:05;;;;;;;7.90;6.63;;;17.80;84.90;;;;;;4936041;29;20652;-51
2021/08/05 06:37:32;;;;;;;6.97;6.07;;;17.80;84.70;;;;;;4937593;29;20946;-51
2021/08/05 06:39:59;;;;;;;10.93;6.63;;;17.90;84.40;;;;;;4937685;29;20454;-51
2021/08/05 06:42:26;;;;;;;7.70;6.90;;;18.00;84.20;;;;;;4936772;29;20440;-51
2021/08/05 06:44:53;;;;;;;8.90;6.43;;;18.00;84.20;;;;;;4936454;29;20492;-51
2021/08/05 06:47:20;;;;;;;6.20;5.27;;;18.10;84.30;;;;;;4934348;29;20558;-51
2021/08/05 06:49:47;;;;;;;9.57;6.10;;;18.20;83.90;;;;;;4934250;29;20474;-51
2021/08/05 06:52:13;;;;;;;9.80;6.60;;;18.30;83.60;;;;;;4926826;29;20460;-51
2021/08/05 06:54:40;;;;;;;7.63;6.33;;;18.50;83.10;;;;;;4936193;29;20467;-51
2021/08/05 06:57:07;;;;;;;7.90;5.60;;;18.60;82.50;;;;;;4936773;29;20832;-51
2021/08/05 06:59:34;;;;;;;7.67;6.13;;;18.80;82.10;;;;;;4938586;29;20554;-51
2021/08/05 07:02:04;;;;;;;7.60;6.50;;;18.90;81.20;;;;;;4929788;29;20476;-51
2021/08/05 07:04:32;;;;;;;6.20;5.30;;;19.00;81.20;;;;;;4931408;29;20506;-51
2021/08/05 07:06:59;;;;;;;7.50;6.80;;;19.10;80.60;;;;;;4932745;29;20455;-51
2021/08/05 07:09:26;;;;;;;7.40;5.40;;;19.20;80.40;;;;;;4916388;29;20456;-51
2021/08/05 07:11:53;;;;;;;9.13;5.37;;;19.30;80.10;;;;;;4929786;29;21223;-51
2021/08/05 07:14:19;;;;;;;7.30;5.63;;;19.30;80.30;;;;;;4935249;29;20460;-51
2021/08/05 07:16:49;;;;;;;6.03;5.03;;;19.40;79.90;;;;;;4913823;29;20953;-50
2021/08/05 07:19:16;;;;;;;5.73;5.20;;;19.60;79.80;;;;;;4935025;29;20456;-51
2021/08/05 07:21:44;;;;;;;5.67;5.07;;;19.70;79.50;;;;;;4934542;29;20472;-51
2021/08/05 07:24:13;;;;;;;6.07;5.47;;;19.90;78.80;;;;;;4932130;29;20543;-51
2021/08/05 07:26:43;;;;;;;5.67;5.10;;;20.00;78.40;;;;;;4935125;29;20444;-51
2021/08/05 07:29:10;;;;;;;6.83;6.23;;;20.10;78.10;;;;;;4934012;29;20452;-51
2021/08/05 07:31:37;;;;;;;5.50;5.00;;;20.30;77.60;;;;;;4933853;29;20463;-51
2021/08/05 07:34:04;;;;;;;5.33;4.60;;;20.50;76.90;;;;;;4923244;29;20444;-51
2021/08/05 07:36:31;;;;;;;7.47;4.90;;;20.60;76.60;;;;;;4927850;29;20468;-51
2021/08/05 07:38:58;;;;;;;4.90;4.50;;;20.70;76.30;;;;;;4931271;29;20713;-52
2021/08/05 07:41:25;;;;;;;5.70;5.10;;;20.90;75.80;;;;;;4932338;29;20452;-52
2021/08/05 07:43:52;;;;;;;7.93;5.30;;;21.00;75.30;;;;;;4917368;29;20518;-52
2021/08/05 07:46:19;;;;;;;5.60;5.00;;;21.20;74.90;;;;;;4927882;29;20455;-51
2021/08/05 07:48:45;;;;;;;6.60;4.37;;;21.30;74.00;;;;;;4915896;29;20464;-51
2021/08/05 07:51:12;;;;;;;5.53;4.60;;;21.40;74.10;;;;;;4930734;29;21109;-51
2021/08/05 07:53:39;;;;;;;4.53;4.10;;;21.60;73.50;;;;;;4931622;29;20466;-51
2021/08/05 07:56:05;;;;;;;5.60;4.90;;;21.70;73.10;;;;;;4929297;29;20970;-51
2021/08/05 07:58:32;;;;;;;5.67;4.60;;;21.90;72.70;;;;;;4929179;29;20479;-51
2021/08/05 08:00:59;;;;;;;5.03;4.50;;;22.00;72.40;;;;;;4929271;29;20491;-52
2021/08/05 08:03:26;;;;;;;4.70;4.30;;;22.20;72.10;;;;;;4930156;29;20463;-51
2021/08/05 08:05:53;;;;;;;5.53;4.90;;;22.30;72.00;;;;;;4928312;29;20493;-51
2021/08/05 08:08:20;;;;;;;7.40;5.00;;;22.50;71.50;;;;;;4918496;29;20488;-51
2021/08/05 08:10:47;;;;;;;6.53;4.50;;;22.60;70.60;;;;;;4922452;29;20467;-51
2021/08/05 08:13:27;;;;;;;7.77;3.73;;;22.60;70.20;;;;;;4931796;29;20459;-51
2021/08/05 08:15:54;;;;;;;5.30;4.40;;;22.70;70.30;;;;;;4933709;29;20881;-51
2021/08/05 08:18:21;;;;;;;4.73;4.33;;;22.90;70.30;;;;;;4931146;29;20460;-52
2021/08/05 08:20:48;;;;;;;4.80;4.30;;;23.00;69.70;;;;;;4931802;29;20460;-51
2021/08/05 08:23:15;;;;;;;5.37;4.60;;;23.30;69.60;;;;;;4915175;29;20463;-51
2021/08/05 08:25:43;;;;;;;4.30;3.90;;;23.50;69.20;;;;;;4927459;29;20491;-51
2021/08/05 08:28:09;;;;;;;4.90;4.40;;;23.70;68.20;;;;;;4930777;29;20459;-52
2021/08/05 08:30:39;;;;;;;4.97;3.83;;;23.80;68.00;;;;;;4930393;29;20894;-52
2021/08/05 08:33:06;;;;;;;5.13;4.47;;;23.90;67.60;;;;;;4924672;29;20499;-50
2021/08/05 08:35:32;;;;;;;5.07;3.77;;;23.90;66.80;;;;;;4930265;29;20977;-52
2021/08/05 08:37:59;;;;;;;5.23;4.30;;;23.80;66.70;;;;;;4930910;29;20443;-51
2021/08/05 08:40:28;;;;;;;4.13;3.50;;;23.60;66.40;;;;;;4914969;29;20448;-51
2021/08/05 08:42:55;;;;;;;4.30;3.90;;;23.50;66.80;;;;;;4934615;29;20451;-52
2021/08/05 08:45:22;;;;;;;4.03;3.70;;;23.60;67.50;;;;;;4931965;29;20487;-52
2021/08/05 08:47:53;;;;;;;4.43;3.50;;;23.80;66.70;;;;;;4930830;29;20858;-52
2021/08/05 08:50:28;;;;;;;3.57;3.20;;;24.00;64.50;;;;;;4931436;29;20444;-52
2021/08/05 08:53:02;;;;;;;4.50;3.80;;;24.20;64.40;;;;;;4930613;29;20534;-52
2021/08/05 08:55:29;;;;;;;3.77;3.00;;;24.50;63.60;;;;;;4929753;29;20968;-51
2021/08/05 08:57:59;;;;;;;3.67;3.33;;;24.60;61.80;;;;;;4925702;29;20907;-52
2021/08/05 09:00:26;;;;;;;3.47;3.17;;;24.80;61.60;;;;;;4923156;29;21055;-52
2021/08/05 09:02:54;;;;;;;4.17;3.20;;;24.90;61.20;;;;;;4928450;29;20468;-52
2021/08/05 09:05:21;;;;;;;3.20;2.90;;;25.00;60.30;;;;;;4930507;29;20491;-52
2021/08/05 09:07:48;;;;;;;4.33;3.43;;;25.00;60.60;;;;;;4932265;29;20458;-52
2021/08/05 09:10:15;;;;;;;3.57;3.27;;;25.10;60.30;;;;;;4931607;29;20820;-52
2021/08/05 09:12:44;;;;;;;4.90;3.50;;;25.10;60.40;;;;;;4931075;29;20814;-52
2021/08/05 09:15:11;;;;;;;3.57;3.27;;;25.30;59.70;;;;;;4913012;29;20467;-52
2021/08/05 09:17:42;;;;;;;4.93;3.10;;;25.40;59.40;;;;;;4928071;29;20637;-52
2021/08/05 09:20:12;;;;;;;4.20;3.50;;;25.60;59.10;;;;;;4930149;29;20987;-52
2021/08/05 09:22:40;;;;;;;6.93;4.27;;;25.80;58.70;;;;;;4928205;29;20474;-52
2021/08/05 09:25:25;;;;;;;6.50;4.10;;;26.10;58.10;;;;;;4924443;29;20479;-52
2021/08/05 09:27:57;;;;;;;4.60;3.07;;;26.40;55.70;;;;;;4928660;29;20988;-52
2021/08/05 09:30:27;;;;;;;3.70;3.40;;;26.60;55.20;;;;;;4916548;29;20469;-52
2021/08/05 09:32:54;;;;;;;6.60;3.60;;;26.80;55.00;;;;;;4927509;29;20448;-52
2021/08/05 09:35:27;;;;;;;4.10;3.20;;;27.20;54.60;;;;;;4932320;29;20986;-51
2021/08/05 09:38:12;;;;;;;3.57;2.87;;;27.30;52.90;;;;;;4932975;29;20451;-51
2021/08/05 09:40:39;;;;;;;3.50;3.20;;;27.60;52.40;;;;;;4929403;29;20451;-52
2021/08/05 09:43:05;;;;;;;3.37;2.90;;;27.80;51.80;;;;;;4927949;29;20935;-51
2021/08/05 09:45:38;;;;;;;2.90;2.60;;;27.60;51.80;;;;;;4925317;29;20253;-51
2021/08/05 09:48:06;;;;;;;4.40;3.00;;;27.40;52.10;;;;;;4926790;29;20212;-51
2021/08/05 09:50:33;;;;;;;3.07;2.77;;;27.20;52.20;;;;;;4922346;29;20515;-52
2021/08/05 09:53:11;;;;;;;3.23;2.93;;;27.20;52.10;;;;;;4924947;29;20467;-52
2021/08/05 09:55:40;;;;;;;3.37;3.07;;;27.30;51.50;;;;;;4913798;29;21220;-51
2021/08/05 09:58:08;;;;;;;2.87;2.53;;;27.10;52.00;;;;;;4924891;29;20514;-51
2021/08/05 10:00:55;;;;;;;2.70;2.50;;;26.90;51.90;;;;;;4925350;29;20273;-52
2021/08/05 10:03:33;;;;;;;4.60;3.13;;;26.80;52.50;;;;;;4926203;29;20538;-52
2021/08/05 10:06:05;;;;;;;4.10;2.87;;;27.00;52.00;;;;;;4925796;29;20574;-53
2021/08/05 10:08:37;;;;;;;4.67;2.87;;;27.30;50.70;;;;;;4927504;29;20553;-53
2021/08/05 10:11:06;;;;;;;4.20;3.80;;;27.70;51.00;;;;;;4929651;29;20523;-53
2021/08/05 10:13:35;;;;;;;6.13;3.47;;;28.10;49.00;;;;;;4925938;29;20216;-53
2021/08/05 10:16:04;;;;;;;4.00;2.60;;;28.20;49.50;;;;;;4924392;29;20211;-53
2021/08/05 10:18:33;;;;;;;3.53;3.00;;;28.20;48.80;;;;;;4926066;29;20215;-53
2021/08/05 10:21:03;;;;;;;3.60;3.03;;;28.30;48.60;;;;;;4926321;29;20208;-53
2021/08/05 10:23:31;;;;;;;4.40;3.70;;;28.30;48.80;;;;;;4927051;29;20218;-53
2021/08/05 10:26:00;;;;;;;4.17;3.00;;;28.50;49.30;;;;;;4923859;29;20223;-53
2021/08/05 10:28:28;;;;;;;3.55;3.25;;;29.00;48.20;;;;;;4927646;29;20208;-53
2021/08/05 10:30:58;;;;;;;4.65;3.30;;;29.40;46.80;;;;;;4923664;29;20644;-52
2021/08/05 10:33:25;;;;;;;5.90;3.20;;;29.80;46.40;;;;;;4930624;29;20196;-53
2021/08/05 10:35:52;;;;;;;3.85;3.45;;;30.00;45.20;;;;;;4927449;29;20199;-53
2021/08/05 10:38:22;;;;;;;3.72;2.70;;;30.10;45.60;;;;;;4924599;29;20215;-53
2021/08/05 10:40:51;;;;;;;4.20;3.55;;;30.20;45.50;;;;;;4929554;29;20221;-53
2021/08/05 10:43:18;;;;;;;3.38;3.08;;;30.00;45.60;;;;;;4933155;29;20208;-53
2021/08/05 10:45:46;;;;;;;3.08;2.78;;;29.70;46.30;;;;;;4933495;29;20241;-53
2021/08/05 10:48:13;;;;;;;3.08;2.83;;;29.40;47.30;;;;;;4916548;29;20718;-52
2021/08/05 10:50:45;;;;;;;3.30;3.10;;;29.20;47.50;;;;;;4932859;29;20220;-53
2021/08/05 10:53:41;;;;;;;3.55;3.00;;;29.00;47.20;;;;;;4927259;29;20211;-53
2021/08/05 10:56:24;;;;;;;2.90;2.60;;;28.80;48.30;;;;;;4931341;29;20223;-53
2021/08/05 10:59:00;;;;;;;3.27;2.97;;;28.40;49.10;;;;;;4931627;29;20353;-53
2021/08/05 11:01:49;;;;;;;3.00;2.80;;;28.10;50.30;;;;;;4933125;29;20261;-53
2021/08/05 11:04:35;;;;;;;4.60;3.63;;;27.80;51.10;;;;;;4917326;29;20208;-53
2021/08/05 11:07:21;;;;;;;5.70;3.30;;;27.50;51.70;;;;;;4933499;29;20256;-53
2021/08/05 11:09:49;;;;;;;3.20;2.87;;;27.20;52.60;;;;;;4936662;29;20210;-53
2021/08/05 11:12:34;;;;;;;4.77;4.30;;;26.90;53.60;;;;;;4934148;29;20984;-53
2021/08/05 11:15:01;;;;;;;2.90;2.70;;;26.60;53.20;;;;;;4925323;29;20487;-53
2021/08/05 11:17:28;;;;;;;3.67;3.00;;;26.40;53.70;;;;;;4929347;29;21292;-53
2021/08/05 11:20:24;;;;;;;3.27;2.97;;;26.20;53.40;;;;;;4931072;29;20474;-53
2021/08/05 11:22:51;;;;;;;5.93;2.87;;;26.00;54.40;;;;;;4914947;29;20482;-53
2021/08/05 11:25:19;;;;;;;3.40;3.10;;;25.80;55.80;;;;;;4928803;29;21115;-53
2021/08/05 11:28:21;;;;;;;2.90;2.50;;;25.70;54.40;;;;;;4930801;29;20443;-54
2021/08/05 11:30:50;;;;;;;3.20;2.90;;;25.60;55.40;;;;;;4932811;29;20448;-53
2021/08/05 11:33:45;;;;;;;4.17;2.87;;;25.60;54.80;;;;;;4935632;29;20900;-53
2021/08/05 11:38:58;;;;;;;2.60;2.40;;;25.60;53.10;;;;;;4932493;29;20465;-53
2021/08/05 11:41:53;;;;;;;2.93;2.33;;;25.50;53.30;;;;;;4933844;29;20809;-53
2021/08/05 11:44:41;;;;;;;3.47;2.53;;;25.30;52.30;;;;;;4931517;29;20820;-53
2021/08/05 11:47:11;;;;;;;3.57;2.67;;;25.20;53.40;;;;;;4929973;29;20448;-53
2021/08/05 11:50:12;;;;;;;2.50;2.30;;;25.10;54.80;;;;;;4931936;29;20454;-54
2021/08/05 11:52:39;;;;;;;3.90;2.33;;;25.00;54.40;;;;;;4930032;29;20458;-54
2021/08/05 11:55:10;;;;;;;2.77;2.47;;;25.00;54.60;;;;;;4930506;29;20538;-53
2021/08/05 11:57:42;;;;;;;2.80;2.60;;;24.90;54.90;;;;;;4930847;29;20840;-53
2021/08/05 12:00:22;;;;;;;3.60;2.30;;;24.80;55.90;;;;;;4933714;29;20485;-53
2021/08/05 12:02:51;;;;;;;4.20;2.70;;;24.80;56.80;;;;;;4934900;29;20470;-53
2021/08/05 12:05:22;;;;;;;3.53;2.70;;;24.80;56.90;;;;;;4929913;29;20503;-53
2021/08/05 12:07:50;;;;;;;2.97;2.67;;;24.70;57.30;;;;;;4930628;29;20461;-53
2021/08/05 12:10:23;;;;;;;3.40;3.10;;;24.70;57.00;;;;;;4931536;29;20456;-53
2021/08/05 12:13:00;;;;;;;4.43;2.73;;;24.70;56.70;;;;;;4931115;29;20464;-53
2021/08/05 12:15:32;;;;;;;3.67;3.03;;;24.70;56.60;;;;;;4928554;29;20456;-53
2021/08/05 12:18:07;;;;;;;4.23;3.47;;;24.60;57.40;;;;;;4929264;29;20460;-53
2021/08/05 12:20:40;;;;;;;3.50;2.90;;;24.50;57.30;;;;;;4930338;29;20489;-53
2021/08/05 12:23:14;;;;;;;3.80;3.43;;;24.50;57.60;;;;;;4913572;29;20468;-53
2021/08/05 12:25:49;;;;;;;3.37;3.03;;;24.60;58.40;;;;;;4929411;29;20493;-53
2021/08/05 12:28:18;;;;;;;4.23;2.67;;;24.60;57.80;;;;;;4932122;29;20789;-53
2021/08/05 12:30:47;;;;;;;3.50;2.93;;;24.70;57.70;;;;;;4931857;29;20454;-53
2021/08/05 12:33:24;;;;;;;3.10;2.90;;;24.60;58.10;;;;;;4915960;29;20467;-53
2021/08/05 12:36:02;;;;;;;4.70;3.40;;;24.60;59.60;;;;;;4930146;29;20978;-53
2021/08/05 12:38:29;;;;;;;3.53;3.17;;;24.50;60.40;;;;;;4929999;29;20459;-53
2021/08/05 12:40:57;;;;;;;4.83;4.20;;;24.30;60.60;;;;;;4930601;29;20459;-53
2021/08/05 12:43:27;;;;;;;5.70;3.40;;;24.30;61.30;;;;;;4932398;29;20455;-53
2021/08/05 12:45:54;;;;;;;5.17;3.90;;;24.20;62.80;;;;;;4932005;29;20837;-53
2021/08/05 12:48:22;;;;;;;16.43;3.80;;;24.00;65.70;;;;;;4913512;29;20491;-52
2021/08/05 12:50:50;;;;;;;9.77;5.20;;;23.90;67.50;;;;;;4929257;29;20473;-52
2021/08/05 12:53:29;;;;;;;6.43;4.13;;;23.70;68.70;;;;;;4931966;29;20558;-52
2021/08/05 12:55:58;;;;;;;4.70;4.13;;;23.50;70.40;;;;;;4928019;29;20483;-52
2021/08/05 12:58:25;;;;;;;7.10;4.40;;;23.40;71.80;;;;;;4929688;28;20470;-52
2021/08/05 13:01:11;;;;;;;6.50;3.70;;;23.30;72.80;;;;;;4932293;29;20516;-52